Startpagina
METAR-TAF:

METAR-TAF

Vliegvelden :

Hongkong, China

Luchthaven Hongkong

breedte: 22-19N, lengte: 113-55E, hoogte: 9 m

Actueel weer

Dit bericht is 23 minuten geleden gemaakt, om 01:30 UTC
Wind 10 kt uit het oostnoordoosten
Temperatuur 29°C
Vochtigheid 55%
Druk 1011 hPa
Zicht 10 km of meer
geen wolken onder 1500 m en geen cumulonimbus

METAR: VHHH 290130Z 06010KT CAVOK 29/19 Q1011 NOSIG

Tijdstip: 09:53 (01:53 UTC)

Verwachting

Dit bericht is 2 uur en het 53 minuten geleden gemaakt, om 23:00 UTC
Verwachting geldig van 29 om 00 UTC tot 30 om 06 UTC
Wind 10 kt uit het oosten
Zicht 10 km of meer
Weinig wolken op 2500 ft
Verspreide wolken op 3500 ft
Tijdelijke
van 29 om 00 UTC tot 29 om 06 UTC
Wind 15 kt uit het oosten met uitschieters tot 25 kt
Tijdelijke
van 29 om 21 UTC tot 30 om 03 UTC
Zicht: 4000 m
regenbuien

TAF: VHHH 282300Z 2900/3006 09010KT 9999 FEW025 SCT035 TX31/2906Z TX30/3006Z TN26/2923Z TEMPO 2900/2906 09015G25KT TEMPO 2921/3003 4000 SHRA

Waarnemingen en weersverwachtingen van meer dan 4000 vliegvelden (METAR en TAF).

De beschikbare stations zijn de gele en rode punten op de kaart.

Ga met uw muis naar het station om de naam te zien.

Klik dan om waarnemingen en weersverwachtingen te zien.

kaart wijzigen: klik op de groene knoppen met een zwart kruis om in te zoomen, op de groene knop met een streepje om uit te zoomen of op de groene pijlen voor aangrenzende kaarten.


METAR-TAF: